createdAt,value
2023-05-11T00:00:46.608Z,21.40
2023-05-11T00:03:14.856Z,22.10
2023-05-11T00:05:48.222Z,22.23
2023-05-11T00:08:17.485Z,24.20
2023-05-11T00:10:48.626Z,22.87
2023-05-11T00:13:16.954Z,22.93
2023-05-11T00:15:45.051Z,22.23
2023-05-11T00:18:13.182Z,25.57
2023-05-11T00:20:41.253Z,21.07
2023-05-11T00:23:10.683Z,29.07
2023-05-11T00:25:39.249Z,27.00
2023-05-11T00:28:07.949Z,23.83
2023-05-11T00:30:36.064Z,25.80
2023-05-11T00:33:04.787Z,21.70
2023-05-11T00:35:33.023Z,21.77
2023-05-11T00:38:01.245Z,21.90
2023-05-11T00:40:32.042Z,23.00
2023-05-11T00:43:00.103Z,22.90
2023-05-11T00:45:28.510Z,25.10
2023-05-11T00:47:56.735Z,23.43
2023-05-11T00:50:27.946Z,23.70
2023-05-11T00:52:56.335Z,26.20
2023-05-11T00:55:24.522Z,23.43
2023-05-11T00:57:54.072Z,25.27
2023-05-11T01:00:22.669Z,25.27
2023-05-11T01:02:51.000Z,26.70
2023-05-11T01:05:19.137Z,23.50
2023-05-11T01:07:51.320Z,26.50
2023-05-11T01:10:22.506Z,24.60
2023-05-11T01:12:58.092Z,23.90
2023-05-11T01:15:28.758Z,26.73
2023-05-11T01:17:59.418Z,24.70
2023-05-11T01:20:32.624Z,24.63
2023-05-11T01:23:25.772Z,27.10
2023-05-11T01:26:12.666Z,27.60
2023-05-11T01:29:20.260Z,26.13
2023-05-11T01:31:49.804Z,26.23
2023-05-11T01:34:18.944Z,25.93
2023-05-11T01:36:50.693Z,27.23
2023-05-11T01:39:18.805Z,24.33
2023-05-11T01:41:47.370Z,27.10
2023-05-11T01:44:15.426Z,27.03
2023-05-11T01:46:43.559Z,28.93
2023-05-11T01:49:13.046Z,27.60
2023-05-11T01:51:51.506Z,26.43
2023-05-11T01:54:19.641Z,32.17
2023-05-11T01:56:47.703Z,29.30
2023-05-11T01:59:15.936Z,30.60
2023-05-11T02:01:44.053Z,29.10
2023-05-11T02:04:12.200Z,28.63
2023-05-11T02:06:40.270Z,30.17
2023-05-11T02:09:09.959Z,29.80
2023-05-11T02:11:49.464Z,30.57
2023-05-11T02:14:18.724Z,28.07
2023-05-11T02:16:47.278Z,29.47
2023-05-11T02:19:15.367Z,26.07
2023-05-11T02:21:43.483Z,29.40
2023-05-11T02:24:13.108Z,29.07
2023-05-11T02:26:41.164Z,25.40
2023-05-11T02:29:09.240Z,27.87
2023-05-11T02:31:45.917Z,27.27
2023-05-11T02:34:20.957Z,28.17
2023-05-11T02:36:49.547Z,26.47
2023-05-11T02:39:21.898Z,26.30
2023-05-11T02:41:51.777Z,29.30
2023-05-11T02:44:21.536Z,25.17
2023-05-11T02:46:49.663Z,26.47
2023-05-11T02:49:17.991Z,26.17
2023-05-11T02:51:46.563Z,26.30
2023-05-11T02:54:14.598Z,25.70
2023-05-11T02:56:44.208Z,29.17
2023-05-11T02:59:12.292Z,27.80
2023-05-11T03:01:40.624Z,27.00
2023-05-11T03:04:08.812Z,27.37
2023-05-11T03:06:37.268Z,30.10
2023-05-11T03:09:07.270Z,27.43
2023-05-11T03:11:37.336Z,22.33
2023-05-11T03:14:07.096Z,26.53
2023-05-11T03:16:35.191Z,24.60
2023-05-11T03:19:03.638Z,25.37
2023-05-11T03:21:32.278Z,25.60
2023-05-11T03:24:00.335Z,28.23
2023-05-11T03:26:30.068Z,26.13
2023-05-11T03:28:58.286Z,28.83
2023-05-11T03:31:27.870Z,26.40
2023-05-11T03:33:58.855Z,28.47
2023-05-11T03:36:27.248Z,30.90
2023-05-11T03:38:56.573Z,29.17
2023-05-11T03:41:25.962Z,28.40
2023-05-11T03:43:54.011Z,28.93
2023-05-11T03:46:22.430Z,30.30
2023-05-11T03:48:51.973Z,28.57
2023-05-11T03:51:20.097Z,28.13
2023-05-11T03:53:48.204Z,28.10
2023-05-11T03:56:16.265Z,30.10
2023-05-11T03:58:44.382Z,31.03
2023-05-11T04:01:13.797Z,31.63
2023-05-11T04:03:53.733Z,30.90
2023-05-11T04:06:43.023Z,31.23
2023-05-11T04:09:11.150Z,29.20
2023-05-11T04:11:39.398Z,29.70
2023-05-11T04:14:07.454Z,28.47
2023-05-11T04:16:35.992Z,29.83
2023-05-11T04:19:06.475Z,29.60
2023-05-11T04:21:34.642Z,33.43
2023-05-11T04:24:02.821Z,30.20
2023-05-11T04:26:30.870Z,28.60
2023-05-11T04:28:59.039Z,28.30
2023-05-11T04:31:27.118Z,29.43
2023-05-11T04:33:55.230Z,27.00
2023-05-11T04:36:25.082Z,31.30
2023-05-11T04:38:53.257Z,27.93
2023-05-11T04:41:22.390Z,30.23
2023-05-11T04:43:50.479Z,28.40
2023-05-11T04:46:18.570Z,28.00
2023-05-11T04:48:46.677Z,28.90
2023-05-11T04:51:14.788Z,27.67
2023-05-11T04:53:44.721Z,28.30
2023-05-11T04:56:16.065Z,29.90
2023-05-11T04:58:44.207Z,30.33
2023-05-11T05:01:12.393Z,29.47
2023-05-11T05:03:40.518Z,32.50
2023-05-11T05:06:08.699Z,30.00
2023-05-11T05:08:36.794Z,30.43
2023-05-11T05:11:06.251Z,32.33
2023-05-11T05:13:37.435Z,29.30
2023-05-11T05:16:05.893Z,31.10
2023-05-11T05:18:34.032Z,32.87
2023-05-11T05:21:02.365Z,28.57
2023-05-11T05:23:30.405Z,37.00
2023-05-11T05:25:58.440Z,32.60
2023-05-11T05:28:28.006Z,33.33
2023-05-11T05:30:56.130Z,31.40
2023-05-11T05:33:24.353Z,37.47
2023-05-11T05:35:52.378Z,34.40
2023-05-11T05:38:20.461Z,33.40
2023-05-11T05:40:48.625Z,37.40
2023-05-11T05:43:16.720Z,35.20
2023-05-11T05:45:46.291Z,33.73
2023-05-11T05:48:14.406Z,38.67
2023-05-11T05:50:42.480Z,33.33
2023-05-11T05:53:10.620Z,37.43
2023-05-11T05:55:38.677Z,33.20
2023-05-11T05:58:06.761Z,35.50
2023-05-11T06:00:35.136Z,36.47
2023-05-11T06:03:05.007Z,34.83
2023-05-11T06:05:33.130Z,37.30
2023-05-11T06:08:09.863Z,40.27
2023-05-11T06:10:39.172Z,36.73
2023-05-11T06:13:08.513Z,36.77
2023-05-11T06:15:36.712Z,38.60
2023-05-11T06:18:06.767Z,41.90
2023-05-11T06:20:34.947Z,36.90
2023-05-11T06:23:08.819Z,37.47
2023-05-11T06:25:36.855Z,39.17
2023-05-11T06:28:05.118Z,36.87
2023-05-11T06:30:33.263Z,39.30
2023-05-11T06:33:01.425Z,34.83
2023-05-11T06:35:46.000Z,34.93
2023-05-11T06:38:14.104Z,37.67
2023-05-11T06:40:42.143Z,38.87
2023-05-11T06:43:10.211Z,34.80
2023-05-11T06:45:38.616Z,35.83
2023-05-11T06:48:07.376Z,39.40
2023-05-11T06:50:35.663Z,34.57
2023-05-11T06:53:05.214Z,39.87
2023-05-11T06:55:33.300Z,37.13
2023-05-11T06:58:01.424Z,37.80
2023-05-11T07:00:29.494Z,40.97
2023-05-11T07:02:57.620Z,38.73
2023-05-11T07:05:25.744Z,35.27
2023-05-11T07:07:59.834Z,38.10
2023-05-11T07:10:29.295Z,31.83
2023-05-11T07:12:57.418Z,35.70
2023-05-11T07:15:25.579Z,35.83
2023-05-11T07:17:53.792Z,31.77
2023-05-11T07:20:21.957Z,34.63
2023-05-11T07:22:50.356Z,33.80
2023-05-11T07:25:18.518Z,28.30
2023-05-11T07:27:48.011Z,31.80
2023-05-11T07:30:17.992Z,31.20
2023-05-11T07:32:46.870Z,28.17
2023-05-11T07:35:15.896Z,27.40
2023-05-11T07:37:43.969Z,30.53
2023-05-11T07:40:12.575Z,26.27
2023-05-11T07:42:40.678Z,30.17
2023-05-11T07:45:11.074Z,26.27
2023-05-11T07:47:39.128Z,23.60
2023-05-11T07:50:08.672Z,30.50
2023-05-11T07:52:36.787Z,24.47
2023-05-11T07:55:05.223Z,25.37
2023-05-11T07:57:33.360Z,22.87
2023-05-11T08:00:01.497Z,25.80
2023-05-11T08:02:31.146Z,28.00
2023-05-11T08:04:59.304Z,27.43
2023-05-11T08:07:32.928Z,27.73
2023-05-11T08:10:00.967Z,32.20
2023-05-11T08:12:29.133Z,25.50
2023-05-11T08:15:04.086Z,23.63
2023-05-11T08:17:33.638Z,28.17
2023-05-11T08:20:01.743Z,30.10
2023-05-11T08:22:29.905Z,30.00
2023-05-11T08:24:58.089Z,24.83
2023-05-11T08:27:26.217Z,23.03
2023-05-11T08:29:54.589Z,24.70
2023-05-11T08:32:22.725Z,21.60
2023-05-11T08:34:52.731Z,27.60
2023-05-11T08:37:20.925Z,24.77
2023-05-11T08:39:49.043Z,21.10
2023-05-11T08:42:17.632Z,21.80
2023-05-11T08:44:45.975Z,23.17
2023-05-11T08:47:23.194Z,22.07
2023-05-11T08:49:53.984Z,21.00
2023-05-11T08:52:22.105Z,18.60
2023-05-11T08:54:50.160Z,18.50
2023-05-11T08:57:18.401Z,19.97
2023-05-11T08:59:46.966Z,20.90
2023-05-11T09:02:18.878Z,21.80
2023-05-11T09:04:48.963Z,20.97
2023-05-11T09:07:18.928Z,25.03
2023-05-11T09:09:47.204Z,20.77
2023-05-11T09:12:15.268Z,21.97
2023-05-11T09:14:43.357Z,23.13
2023-05-11T09:17:11.517Z,23.30
2023-05-11T09:19:57.601Z,18.07
2023-05-11T09:22:29.307Z,22.37
2023-05-11T09:24:58.854Z,22.57
2023-05-11T09:27:27.118Z,19.27
2023-05-11T09:29:55.557Z,20.40
2023-05-11T09:32:23.851Z,20.73
2023-05-11T09:34:52.045Z,22.57
2023-05-11T09:37:27.568Z,20.77
2023-05-11T09:42:27.281Z,19.67
2023-05-11T09:44:55.828Z,20.03
2023-05-11T09:47:23.950Z,19.87
2023-05-11T09:49:52.089Z,21.03
2023-05-11T09:52:21.220Z,21.03
2023-05-11T09:54:52.315Z,19.43
2023-05-11T09:57:27.334Z,15.37
2023-05-11T09:59:55.924Z,18.50
2023-05-11T10:02:25.040Z,16.00
2023-05-11T10:04:54.328Z,15.13
2023-05-11T10:07:26.587Z,18.37
2023-05-11T10:10:03.244Z,15.30
2023-05-11T10:12:33.486Z,14.67
2023-05-11T10:15:02.924Z,12.80
2023-05-11T10:17:31.639Z,14.20
2023-05-11T10:19:59.947Z,16.23
2023-05-11T10:22:28.711Z,14.00
2023-05-11T10:24:59.052Z,13.80
2023-05-11T10:27:27.416Z,13.00
2023-05-11T10:29:55.617Z,13.40
2023-05-11T10:32:23.793Z,12.97
2023-05-11T10:34:52.081Z,16.33
2023-05-11T10:37:21.290Z,17.87
2023-05-11T10:39:50.637Z,16.33
2023-05-11T10:45:53.766Z,18.80
2023-05-11T10:48:39.602Z,15.40
2023-05-11T10:51:34.930Z,14.27
2023-05-11T10:54:11.181Z,11.53
2023-05-11T10:56:50.843Z,13.17
2023-05-11T10:59:47.933Z,11.50
2023-05-11T11:02:17.869Z,11.77
2023-05-11T11:04:52.495Z,12.20
2023-05-11T11:07:21.085Z,9.63
2023-05-11T11:09:54.114Z,10.60
2023-05-11T11:12:27.851Z,12.30
2023-05-11T11:15:06.098Z,10.60
2023-05-11T11:17:35.193Z,12.60
2023-05-11T11:20:04.460Z,11.07
2023-05-11T11:22:46.863Z,9.27
2023-05-11T11:25:15.601Z,10.60
2023-05-11T11:28:00.205Z,11.70
2023-05-11T11:30:30.793Z,9.40
2023-05-11T11:33:35.231Z,12.13
2023-05-11T11:36:03.337Z,10.17
2023-05-11T11:38:33.195Z,10.33
2023-05-11T11:41:01.235Z,10.63
2023-05-11T11:43:31.525Z,10.60
2023-05-11T11:46:01.127Z,11.20
2023-05-11T11:48:32.515Z,9.70
2023-05-11T11:51:13.130Z,10.13
2023-05-11T11:54:00.821Z,10.83
2023-05-11T11:56:42.298Z,10.07
2023-05-11T11:59:13.916Z,10.03
2023-05-11T12:01:44.102Z,11.60
2023-05-11T12:04:39.595Z,10.80
2023-05-11T12:07:09.817Z,10.90
2023-05-11T12:09:39.734Z,9.50
2023-05-11T12:12:19.670Z,9.80
2023-05-11T12:14:49.822Z,10.23
2023-05-11T12:17:26.075Z,10.47
2023-05-11T12:19:54.308Z,10.40
2023-05-11T12:22:25.747Z,10.63
2023-05-11T12:24:58.262Z,9.80
2023-05-11T12:27:28.327Z,9.77
2023-05-11T12:29:57.366Z,9.43
2023-05-11T12:32:30.648Z,9.90
2023-05-11T12:35:00.228Z,10.03
2023-05-11T12:37:28.390Z,10.47
2023-05-11T12:39:56.959Z,9.90
2023-05-11T12:42:25.100Z,11.70
2023-05-11T12:45:09.264Z,10.53
2023-05-11T12:47:38.914Z,9.30
2023-05-11T12:50:08.564Z,8.13
2023-05-11T12:52:36.719Z,9.23
2023-05-11T12:55:05.029Z,9.03
2023-05-11T12:57:33.702Z,10.73
2023-05-11T13:00:12.661Z,9.07
2023-05-11T13:02:52.411Z,9.80
2023-05-11T13:05:29.457Z,11.63
2023-05-11T13:08:00.787Z,9.23
2023-05-11T13:10:29.083Z,9.17
2023-05-11T13:12:57.356Z,8.40
2023-05-11T13:15:25.812Z,13.87
2023-05-11T13:18:04.068Z,10.73
2023-05-11T13:20:33.378Z,9.23
2023-05-11T13:23:05.647Z,7.90
2023-05-11T13:25:33.950Z,8.17
2023-05-11T13:28:02.625Z,8.97
2023-05-11T13:30:33.425Z,9.50
2023-05-11T13:33:04.437Z,8.60
2023-05-11T13:35:32.659Z,10.70
2023-05-11T13:38:00.743Z,8.37
2023-05-11T13:40:28.968Z,8.07
2023-05-11T13:42:57.260Z,8.00
2023-05-11T13:45:25.558Z,8.30
2023-05-11T13:47:55.285Z,8.70
2023-05-11T13:50:25.123Z,8.20
2023-05-11T13:52:53.196Z,7.80
2023-05-11T13:55:21.579Z,10.67
2023-05-11T13:57:49.840Z,9.60
2023-05-11T14:00:19.598Z,11.17
2023-05-11T14:02:49.699Z,10.17
2023-05-11T14:05:18.470Z,7.50
2023-05-11T14:07:49.222Z,11.10
2023-05-11T14:10:17.830Z,7.77
2023-05-11T14:12:46.122Z,9.13
2023-05-11T14:15:14.486Z,7.80
2023-05-11T14:17:43.299Z,8.53
2023-05-11T14:20:12.805Z,7.30
2023-05-11T14:22:41.595Z,7.10
2023-05-11T14:25:16.793Z,7.30
2023-05-11T14:27:45.076Z,6.23
2023-05-11T14:30:13.774Z,7.53
2023-05-11T14:32:41.861Z,8.33
2023-05-11T14:35:10.359Z,9.60
2023-05-11T14:37:38.627Z,7.67
2023-05-11T14:40:08.007Z,7.93
2023-05-11T14:42:37.944Z,8.43
2023-05-11T14:45:06.989Z,7.57
2023-05-11T14:47:35.175Z,9.00
2023-05-11T14:50:03.478Z,9.07
2023-05-11T14:52:31.943Z,7.50
2023-05-11T14:55:00.040Z,6.80
2023-05-11T14:57:37.041Z,6.60
2023-05-11T15:00:08.530Z,6.00
2023-05-11T15:02:36.644Z,6.73
2023-05-11T15:05:04.992Z,6.30
2023-05-11T15:07:33.137Z,6.37
2023-05-11T15:10:01.983Z,5.10
2023-05-11T15:12:30.612Z,5.13
2023-05-11T15:14:58.709Z,4.83
2023-05-11T15:17:28.211Z,5.10
2023-05-11T15:19:56.403Z,4.90
2023-05-11T15:22:24.478Z,8.60
2023-05-11T15:24:52.540Z,4.10
2023-05-11T15:27:20.700Z,4.83
2023-05-11T15:29:51.872Z,4.30
2023-05-11T15:32:20.515Z,4.73
2023-05-11T15:34:59.290Z,4.87
2023-05-11T15:37:28.341Z,4.13
2023-05-11T15:39:56.435Z,4.20
2023-05-11T15:42:24.559Z,4.57
2023-05-11T15:44:57.561Z,4.50
2023-05-11T15:47:26.031Z,5.03
2023-05-11T15:49:55.543Z,4.30
2023-05-11T15:52:23.620Z,4.77
2023-05-11T15:54:51.749Z,5.00
2023-05-11T15:57:21.353Z,4.40
2023-05-11T15:59:49.492Z,4.23
2023-05-11T16:02:17.691Z,4.90
2023-05-11T16:04:45.967Z,4.77
2023-05-11T16:07:15.526Z,4.60
2023-05-11T16:09:43.772Z,4.90
2023-05-11T16:12:11.976Z,5.23
2023-05-11T16:14:40.052Z,4.97
2023-05-11T16:17:08.592Z,5.40
2023-05-11T16:19:37.297Z,5.10
2023-05-11T16:22:05.752Z,6.20
2023-05-11T16:24:35.290Z,5.20
2023-05-11T16:27:04.165Z,4.70
2023-05-11T16:29:32.480Z,5.67
2023-05-11T16:32:00.960Z,4.80
2023-05-11T16:34:29.142Z,6.00
2023-05-11T16:36:58.921Z,4.80
2023-05-11T16:39:27.479Z,6.17
2023-05-11T16:41:56.953Z,6.33
2023-05-11T16:44:25.189Z,5.90
2023-05-11T16:46:53.494Z,5.17
2023-05-11T16:49:21.568Z,5.63
2023-05-11T16:52:03.493Z,7.63
2023-05-11T16:54:31.653Z,5.63
2023-05-11T16:57:01.234Z,5.73
2023-05-11T16:59:29.565Z,6.67
2023-05-11T17:02:03.394Z,5.63
2023-05-11T17:04:31.862Z,5.50
2023-05-11T17:06:59.991Z,7.37
2023-05-11T17:09:28.302Z,4.47
2023-05-11T17:11:56.799Z,6.07
2023-05-11T17:14:26.458Z,4.50
2023-05-11T17:16:54.516Z,6.33
2023-05-11T17:19:22.597Z,4.97
2023-05-11T17:21:50.744Z,4.23
2023-05-11T17:24:18.891Z,4.27
2023-05-11T17:26:48.404Z,4.63
2023-05-11T17:29:17.159Z,3.97
2023-05-11T17:31:49.294Z,7.10
2023-05-11T17:34:17.787Z,3.93
2023-05-11T17:36:45.964Z,4.27
2023-05-11T17:39:14.076Z,4.33
2023-05-11T17:41:58.498Z,4.10
2023-05-11T17:44:26.614Z,3.67
2023-05-11T17:46:56.062Z,5.60
2023-05-11T17:49:24.150Z,3.87
2023-05-11T17:51:52.188Z,4.70
2023-05-11T17:54:20.369Z,4.37
2023-05-11T17:56:48.668Z,5.90
2023-05-11T17:59:16.752Z,4.93
2023-05-11T18:01:44.856Z,5.80
2023-05-11T18:04:15.186Z,4.70
2023-05-11T18:06:43.555Z,4.53
2023-05-11T18:09:12.591Z,4.63
2023-05-11T18:11:40.966Z,4.30
2023-05-11T18:14:12.116Z,4.20
2023-05-11T18:16:40.242Z,4.97
2023-05-11T18:19:08.361Z,5.00
2023-05-11T18:21:38.246Z,5.17
2023-05-11T18:24:07.297Z,4.93
2023-05-11T18:26:35.363Z,4.80
2023-05-11T18:29:03.436Z,6.73
2023-05-11T18:31:31.699Z,4.27
2023-05-11T18:33:59.793Z,4.90
2023-05-11T18:36:28.163Z,5.40
2023-05-11T18:38:57.683Z,4.70
2023-05-11T18:41:25.724Z,4.53
2023-05-11T18:43:54.504Z,5.20
2023-05-11T18:46:22.696Z,4.27
2023-05-11T18:48:59.832Z,4.63
2023-05-11T18:51:27.881Z,4.80
2023-05-11T18:53:57.364Z,4.60
2023-05-11T18:56:25.536Z,8.20
2023-05-11T18:58:53.614Z,5.47
2023-05-11T19:01:25.871Z,5.40
2023-05-11T19:03:58.520Z,5.13
2023-05-11T19:06:26.608Z,4.80
2023-05-11T19:08:55.780Z,5.67
2023-05-11T19:11:25.672Z,5.47
2023-05-11T19:13:53.747Z,5.07
2023-05-11T19:16:29.453Z,5.13
2023-05-11T19:18:57.592Z,4.87
2023-05-11T19:21:25.703Z,5.13
2023-05-11T19:23:53.964Z,5.10
2023-05-11T19:26:22.969Z,5.03
2023-05-11T19:28:52.484Z,5.20
2023-05-11T19:31:20.623Z,4.40
2023-05-11T19:33:48.713Z,6.33
2023-05-11T19:36:16.929Z,6.37
2023-05-11T19:38:52.409Z,5.73
2023-05-11T19:41:21.098Z,6.83
2023-05-11T19:43:49.142Z,5.93
2023-05-11T19:46:18.720Z,6.23
2023-05-11T19:48:46.796Z,6.43
2023-05-11T19:51:14.840Z,7.50
2023-05-11T19:53:43.649Z,6.23
2023-05-11T19:56:11.688Z,5.83
2023-05-11T19:58:40.112Z,11.00
2023-05-11T20:01:08.358Z,6.10
2023-05-11T20:03:38.027Z,6.60
2023-05-11T20:06:08.508Z,6.60
2023-05-11T20:08:36.622Z,5.83
2023-05-11T20:11:05.157Z,6.33
2023-05-11T20:13:33.221Z,8.80
2023-05-11T20:16:01.422Z,5.83
2023-05-11T20:18:29.645Z,6.87
2023-05-11T20:20:59.121Z,6.43
2023-05-11T20:23:27.386Z,6.47
2023-05-11T20:25:55.448Z,6.47
2023-05-11T20:28:27.239Z,6.70
2023-05-11T20:30:56.232Z,6.43
2023-05-11T20:35:55.533Z,6.70
2023-05-11T20:38:25.583Z,5.90
2023-05-11T20:40:57.883Z,4.67
2023-05-11T20:43:27.230Z,7.47
2023-05-11T20:46:03.419Z,7.10
2023-05-11T20:48:40.088Z,6.23
2023-05-11T20:51:09.501Z,6.87
2023-05-11T20:53:39.045Z,6.60
2023-05-11T20:56:08.406Z,7.13
2023-05-11T20:58:36.618Z,7.37
2023-05-11T21:01:04.740Z,7.47
2023-05-11T21:03:32.875Z,8.23
2023-05-11T21:06:01.014Z,7.87
2023-05-11T21:08:29.040Z,7.43
2023-05-11T21:10:58.525Z,7.40
2023-05-11T21:13:26.557Z,7.80
2023-05-11T21:15:54.731Z,7.40
2023-05-11T21:18:23.221Z,8.10
2023-05-11T21:20:51.712Z,7.73
2023-05-11T21:23:19.790Z,8.10
2023-05-11T21:25:53.181Z,8.57
2023-05-11T21:28:22.665Z,8.00
2023-05-11T21:30:50.788Z,7.97
2023-05-11T21:33:18.893Z,8.67
2023-05-11T21:35:47.044Z,7.67
2023-05-11T21:38:16.964Z,9.40
2023-05-11T21:40:45.041Z,9.80
2023-05-11T21:43:14.077Z,8.97
2023-05-11T21:45:45.469Z,10.13
2023-05-11T21:48:14.003Z,10.33
2023-05-11T21:50:42.203Z,11.47
2023-05-11T21:53:13.367Z,9.83
2023-05-11T21:55:41.488Z,9.63
2023-05-11T21:58:09.539Z,10.80
2023-05-11T22:00:38.040Z,10.83
2023-05-11T22:03:07.695Z,11.83
2023-05-11T22:05:36.067Z,11.77
2023-05-11T22:08:13.797Z,11.33
2023-05-11T22:10:44.025Z,10.97
2023-05-11T22:13:12.121Z,12.70
2023-05-11T22:15:40.293Z,12.60
2023-05-11T22:18:09.805Z,15.07
2023-05-11T22:20:37.899Z,10.43
2023-05-11T22:23:05.959Z,11.47
2023-05-11T22:25:47.885Z,10.90
2023-05-11T22:28:15.978Z,11.80
2023-05-11T22:30:44.115Z,11.27
2023-05-11T22:33:13.630Z,10.50
2023-05-11T22:35:42.468Z,11.23
2023-05-11T22:38:15.626Z,10.50
2023-05-11T22:40:43.724Z,10.97
2023-05-11T22:43:11.805Z,11.70
2023-05-11T22:45:39.958Z,10.90
2023-05-11T22:48:08.195Z,11.60
2023-05-11T22:50:37.634Z,10.00
2023-05-11T22:53:05.766Z,10.47
2023-05-11T22:55:34.910Z,10.07
2023-05-11T22:58:03.543Z,9.80
2023-05-11T23:00:31.769Z,8.00
2023-05-11T23:03:00.007Z,9.10
2023-05-11T23:05:33.704Z,8.00
2023-05-11T23:08:03.228Z,8.60
2023-05-11T23:10:31.387Z,7.80
2023-05-11T23:12:59.486Z,6.97
2023-05-11T23:15:28.039Z,7.73
2023-05-11T23:17:56.286Z,8.73
2023-05-11T23:20:24.379Z,6.93
2023-05-11T23:22:52.536Z,7.17
2023-05-11T23:25:22.028Z,6.67
2023-05-11T23:27:50.193Z,7.20
2023-05-11T23:30:19.128Z,7.13
2023-05-11T23:32:47.446Z,7.63
2023-05-11T23:35:15.646Z,7.70
2023-05-11T23:37:43.894Z,7.00
2023-05-11T23:40:12.671Z,6.73
2023-05-11T23:42:42.251Z,6.47
2023-05-11T23:45:11.108Z,7.03
2023-05-11T23:47:45.123Z,7.60
2023-05-11T23:50:13.938Z,8.00
2023-05-11T23:52:42.045Z,7.60
2023-05-11T23:55:10.880Z,7.60
2023-05-11T23:57:38.929Z,6.40
